Harbltron's sites:

title views votes rating creation
?WIIUWIIUWII 739 6 (3.50)  2014-09-27
?Pants 601 4 (3.75)  2014-09-24
?Don't eat DEW 884 9 (3.56)  2013-04-30
?The Day of Reckoning 4,610 54 (3.74)  2012-06-27
?A message to the mods of YTMND 2,638 40 (3.60)  2012-06-18
?Do not attempt to adjust the picture 2,080 32 (3.66)  2012-06-15
?Can of beans 1,430 20 (2.95)  2012-05-18
?Beats me 2,559 46 (3.83)  2012-04-06
?все, кто дает дерьмо... 593 5 (2.20)  2012-03-14
?lol i donno 518 4 (3.25)  2012-02-13
?A user actually returns to YTMND 3,738 77 (4.18)  2012-01-08
?The Fad Four reunite 5,111 114 (4.29)  2012-01-05
?So YTMND is dying harder than usual? 2,230 47 (3.83)  2012-01-03
?Vidya Geam 2,336 4 (2.25)  2011-12-15
?(nsfw) Coconutman birthday boy dominates the fro... 5,150 79 (3.86)  2011-11-16
?They can rebuild him 20,821 216 (4.54)  2011-11-06
?Some poor thing i created while i was drunk 991 11 (3.36)  2011-10-26
?Ultimate Warrior breaks down the problems affecti... 6,609 108 (4.11)  2011-10-20
?Khan jumps out of the Tardis and kicks your dad in ... 910 18 (3.50)  2011-10-14
?Duckman: The Movie 2,352 49 (3.76)  2011-10-06
?(nsfw) Rub-A-Dub Dave 1,522 13 (3.15)  2011-09-17
?(nsfw) Happy Humpday 3,876 58 (3.67)  2011-09-14
?Faggy contest entry for Fearcondom contest on th... 1,145 14 (3.00)  2011-09-08
?Vote me off the front page 7,922 177 (4.18)  2011-08-23
?Norm Macdonald's Career 3,440 48 (3.33)  2011-08-19
?Blatantly Artfaggy Site 2,200 46 (3.80)  2011-08-08
?Flehman 1,069 12 (3.50)  2011-08-03
?Site about Amy Winehouse 1,065 17 (3.71)  2011-07-23
?High-effort contest site to counteract previous, no-ef... 1,162 14 (3.57)  2011-07-21
?(nsfw) Goodbye old friend (Refresh) 1,929 20 (4.25)  2011-07-19
?RARENBTONPIITIOPBGBTRMOCAFIPBTMIOMR... 7,151 96 (4.21)  2011-07-10
?Saw this and thought of you guys 4,819 86 (4.15)  2011-07-05
?Sinefeld 10,132 109 (4.28)  2011-06-20
?Contests 552 4 (4.00)  2011-06-07
?Rest in peace, pep-pep 1,263 16 (3.69)  2011-06-02
?jumping on the bandwagon 1,367 16 (3.75)  2011-05-24
?Out-of-contexTMND 938 11 (4.45)  2011-05-22
?Hamboning will save your life one day 1,375 9 (4.33)  2011-05-18
?Hank Hill is a fucking Hipster 1,569 12 (3.83)  2011-05-08
?Fear and Umfuld in Las Vegas 1,558 23 (4.26)  2011-05-02
?Because 1,101 9 (4.56)  2011-04-29
?[Updated lol] Rooney the Footballer: Blue Moon Zo... 8,611 82 (4.35)  2011-04-17
?Gary Gnu for Mod! 1,379 5 (4.40)  2011-04-10
?(nsfw) Gross, she's all naked and shit! 2,828 14 (3.79)  2011-04-07
?Max is deleting alts? 1,462 21 (3.67)  2011-04-04
?Riker learns something else 4,738 28 (4.14)  2011-03-30
?Remember, obsessed queers; 789 6 (3.50)  2011-03-25
?Meanwhile in North Korea 6,299 49 (4.20)  2011-03-24
?Like Matlab in a haystack 9,285 92 (4.20)  2011-03-17
?Funny joke that is popular (F5) 5,914 63 (3.94)  2011-03-14
?Charlie gets help 1,999 11 (4.00)  2011-03-03
?SPBCWMBMNA Remix; AKA How to Cook for ... 1,776 15 (3.67)  2011-02-04
?Space Cats from Dimension D 8,768 93 (4.22)  2011-01-22
?Refudiate 1,267 16 (3.63)  2011-01-09
?Needles is excited about 2011 1,369 13 (4.08)  2011-01-01
?Happy Birthday, Jesus! 763 8 (3.13)  2010-12-24
?Some People 22,653 220 (4.45)  2010-12-17
?Fuck your sewing-circle, Betty. 2,517 26 (3.62)  2010-12-04
?Keeping Up with the Kardashians is on! 1,159 17 (3.53)  2010-12-03
?A French Erotic Film 2,130 26 (3.81)  2010-11-28
?Colin Mochrie: Poker Face of Steel 4,041 62 (3.82)  2010-11-23
?A Site to appeal to Darthwang 4,537 65 (3.94)  2010-11-19
?He knows when you are sleeping, He knows when ... 1,093 15 (3.60)  2010-11-18
?Funny 2.0 Joke 1,043 20 (3.40)  2010-11-17
?The "Girls" of YTMND 2010 Submission ... 1,777 20 (3.65)  2010-11-15
?The "Girls" of YTMND 2010 Submission ... 1,339 16 (3.88)  2010-11-15
?The "Girls" of YTMND 2010 Submission 816 14 (3.50)  2010-11-15
?There's something wrong with this hallway 1,067 9 (3.78)  2010-11-13
?Dancing 2 Doom 3,416 63 (4.10)  2010-11-12
?DON'T SHOOT (F5) 2,255 25 (4.24)  2010-11-05
?Bugs Chugs Drugs 747 7 (4.00)  2010-10-26
?Colin Mochrie: Face of Steel 3,856 24 (4.38)  2010-10-21
?Candyland 1,059 12 (4.25)  2010-10-21
?I'll Never Quit 692 5 (4.20)  2010-10-17
?Beatneds™ 1,244 17 (4.12)  2010-10-10
?MAX HELP 568 4 (4.50)  2010-10-07
?The Imaginarium of Doctor Penisus 2,352 23 (4.22)  2010-10-02
?Bob Dylan gets high and sings Heart of Gold to a P... 1,593 15 (3.80)  2010-08-27
?A site to appeal to Umfuld 2,723 32 (4.19)  2010-08-15
?HAY ITS FIDRAY 3,815 40 (4.15)  2010-08-14
?We Fear Change 1,524 11 (3.64)  2010-08-11
?A site to appeal to Lacrossestar83 3,633 57 (4.30)  2010-08-10
?Danny Glover works for the U.N. 2,639 26 (4.12)  2010-08-04
?What Google? What? 3,653 10 (4.50)  2010-07-31
?Puss in boots 2,676 23 (4.22)  2010-07-22
?Z̟̬̦̮͍̰̬͚ͫ̓̊ͨA̬͕̣͉̱ͮ̈́̎̑L̽͛͑... 10,160 76 (4.30)  2010-07-21
?I found Umfulds cat 2,847 31 (4.45)  2010-07-20
?A diplomatic gesture 3,034 14 (4.21)  2010-07-19
?I'm going to sue Mattels balls off 3,134 14 (4.36)  2010-07-13
?What you see when you..... uhh...... 1,589 15 (4.27)  2010-07-11
?Happy Belated Canada Day! 1,546 8 (3.63)  2010-07-02
?(nsfw) Working for the weekend 2,654 27 (4.07)  2010-06-26
?Feels so Annoying 26,859 281 (4.46)  2010-06-15
?Stu Pickles has a nervous breakdown 35,897 301 (4.48)  2010-06-08
?Mad Man talks about his sophisticated day 2,143 32 (3.94)  2010-06-06
?Fire in the Dildo (a Chad Warden production) 3,563 16 (3.63)  2010-06-05
?Let's look at ships 1,297 20 (3.95)  2010-06-03
?Harbltron's 100th site 1,345 27 (3.81)  2010-05-29
?Classy Riker approves of everything 5,995 93 (3.99)  2010-05-26
?Enough sharing your deepest feelings 3,759 48 (3.92)  2010-05-16
?Catholic Church unveils new mascot 2,977 38 (3.95)  2010-05-14
?Gary Gnu quits the YTMNDs 910 10 (4.00)  2010-05-13
?A cat does something 1,468 16 (3.63)  2010-05-12
?Super YTMND Hunt 2,835 68 (3.88)  2010-05-08
?The Quest for NEDM (Part the Seventh) 1,071 13 (1.77)  2010-05-08
?The Quest for NEDM (Part the Sixth) 1,233 11 (3.55)  2010-05-08
?The Quest for NEDM (Part the Fifth) 776 11 (2.91)  2010-05-07
?Jean-Luc takes Tetris too seriously 33,754 437 (4.55)  2010-05-07
?Pretty much everywhere 5,429 96 (3.91)  2010-05-07
?Sleep-dreaming 1,176 21 (3.81)  2010-05-03
?The Quest for NEDM (Part the Fourth) 880 8 (3.63)  2010-05-02
?The Quest for NEDM (Part the Third) 833 12 (3.50)  2010-05-02
?The Quest for NEDM (Part the Second) 771 9 (2.89)  2010-05-02
?The Quest for NEDM (Part the First) 982 9 (3.00)  2010-05-02
?Randum Assetz 886 9 (3.78)  2010-05-02
?Fucking magnets, this is how they work. 5,166 86 (3.95)  2010-05-02
?Clash of the Titans 1,091 18 (3.78)  2010-05-01
?I don't know what this is going to be 772 7 (3.57)  2010-05-01
?Thrilla Killa Klownz 1,493 22 (3.95)  2010-04-28
?Tim, Eric, and the OH MY GOD WHAT THE 2,434 21 (3.95)  2010-04-27
?Harry Potter and the Fucking Magnets 6,102 59 (3.98)  2010-04-23
?Guns and Pussy 4,740 27 (3.74)  2010-04-23
?Andrew W.K. gives singing lessons 1,095 8 (3.88)  2010-04-23
?Superman wishes you a happy 4/20 2,116 13 (3.46)  2010-04-20
?Lifeguard Whale's fanbase grows. 4,303 29 (3.21)  2010-04-18
?U.S. Marines hard at work 3,123 24 (3.75)  2010-04-18
?Horton hears a whore 2,011 29 (4.00)  2010-04-17
?Bad Horse 2,239 17 (3.76)  2010-04-16
?Spulling Beez 1,212 16 (3.88)  2010-04-14
?Dr. Horrible's Trance Ray 98,339 643 (4.44)  2010-04-14
?I am very good at lovemaking 1,891 9 (3.00)  2010-04-11
?Got my damn rape-face on 3,100 19 (3.58)  2010-04-11
?Steve Brule vs. MC Fearcondom 4,777 64 (3.80)  2010-04-11
?Cujo 712 11 (3.55)  2010-04-11
?She's still alive... 3,339 20 (3.45)  2010-04-06
?Which one is a FEMALE? 1,044 5 (3.20)  2010-04-05
?Stephanie takes in up the poop-chute 7,240 57 (3.95)  2010-04-03
?Super Happy Dance Time feat. Bob Harris 1,048 10 (3.90)  2010-04-03
?Gypsy lifts her skirt for a quarter 1,439 16 (4.06)  2010-04-03
?(nsfw) Babelfish had one weakness..... 1,478 5 (2.60)  2010-04-03
?My face when I saw YTMND 2.0 1,170 18 (3.78)  2010-04-02
?Clint Eastwood transforms hatred into music 1,104 32 (3.72)  2010-03-27
?Internet date 951 8 (3.38)  2010-03-27
?The Dance of Kuzzik 876 6 (3.83)  2010-03-24
?And every one a brilliant sun 669 9 (3.22)  2010-03-23
?Drinks are on me boys! 1,190 8 (3.75)  2010-03-22
?Bowie is hypnotizing you 53,757 155 (4.27)  2010-03-21
?WAFFLEZ votes are fair and unbiasesd 1,298 19 (3.68)  2010-03-21
?Getting Medieval on your ass 1,700 20 (3.50)  2010-03-20
?Homer Simpson's Punchout 2,942 59 (3.85)  2010-03-20
?Whoops 639 3 (3.00)  2010-03-20
?Broken Record, Streets of Rage 2 edition 788 7 (2.86)  2010-03-17
?A reiteration of a writ of habeas corpus ad nauseu... 1,360 15 (3.40)  2010-03-15
?(nsfw) You're doing it.... wrong? 1,690 10 (3.90)  2010-03-15
?HURRRGGHHAAAGGHGHGHAAAHHAGH 4,666 2 (3.50)  2010-03-15
?Are you ready for some... 573 5 (2.80)  2010-03-14
?Gunther gets classy 2,124 18 (4.28)  2010-03-14
?Only One 963 12 (3.83)  2010-03-14
?Damn Good Coffee 4,248 55 (4.02)  2010-03-13
?C'est un site de jeu vidéo 1,457 13 (3.23)  2010-03-12
?Good artists create 1,137 8 (2.63)  2010-03-11
?Shocking News from Japan 1,132 11 (3.55)  2010-03-08
?Commence eye rape 1,540,457 543 (4.38)  2010-03-08
?Ol' Twirlin Jake 643 4 (3.50)  2010-03-08
?Entanglement 943 15 (3.80)  2010-03-07
?Fwappah 562 3 (3.33)  2010-03-05
?Vampire Bill watches Star Wars 974 3 (3.33)  2010-03-05
?Max's Adventure 588 9 (3.00)  2010-03-04
?YTMND in 15 years 933 5 (2.20)  2010-03-03
?I forgot my pills 547 4 (3.75)  2010-03-03
?Happy B-day Shayna! 662 6 (3.67)  2010-03-02
?DUNANANANANANEOWWWW 684 6 (3.67)  2010-03-02
?Max Haunts my Dreams Technicolour Edition!&trad... 850 9 (3.89)  2010-03-01
?Fishhead is having a wonderful time 1,133 3 (2.67)  2010-02-28
?Brick the Butcher 1,414 8 (3.50)  2010-02-28
?Max haunts my dreams 1,796 39 (3.95)  2010-02-28
?Flash preloader gives Harbltron an idea 781 5 (3.80)  2010-02-28
?̩͑ͮͨ̉̕͝Zͪ̑͒̾̓&#8... 1,440 7 (3.71)  2010-02-26
?Ell Oh Ell 968 5 (2.80)  2010-02-26
?Fences 844 8 (3.63)  2010-02-24
?What do you think about Haiti? 2,350 23 (3.74)  2010-02-23
?Ppprrrr 1,559 11 (3.64)  2010-02-23
?Punk Bitches 1,255 4 (2.00)  2010-02-19
?George Jetson in Prehistoric Times 1,408 18 (3.72)  2010-02-17
?I hate wireless 758 4 (3.25)  2010-02-15
?(nsfw) ...and now for something completely differe... 1,065 8 (3.38)  2010-02-14
?Happy Valentines, YTMND! 665 4 (2.75)  2010-02-14
?The Jerk Store called... 1,899 43 (3.88)  2010-02-13
?The most stable version of Firefox I've ever ... 961 9 (2.00)  2010-02-12
?Stay for dinner 914 5 (3.40)  2010-02-08
?Daily life (F11) 755 4 (4.00)  2010-02-08
?YOU WON THE LOTTERY CLICK HERE 818 12 (3.75)  2010-02-08
?Soothes the Savage Beast 686 9 (3.56)  2010-02-07
?The doctor says I'm gay... 1,474 18 (3.67)  2010-02-01
?Basement-dweller goes thespian 1,182 18 (3.89)  2009-10-23
?G Unit hits it's Avant Garde phase 664 3 (2.67)  2008-09-27